sensor_id;sensor_type;location;lat;lon;timestamp;temperature;humidity
68912;SHT31;55953;51.650;-0.522;2023-06-22T00:00:32;17.41;74.35
68912;SHT31;55953;51.650;-0.522;2023-06-22T00:03:20;17.38;74.58
68912;SHT31;55953;51.650;-0.522;2023-06-22T00:05:50;17.31;74.69
68912;SHT31;55953;51.650;-0.522;2023-06-22T00:08:19;17.27;74.74
68912;SHT31;55953;51.650;-0.522;2023-06-22T00:10:47;17.24;74.89
68912;SHT31;55953;51.650;-0.522;2023-06-22T00:13:16;17.25;74.79
68912;SHT31;55953;51.650;-0.522;2023-06-22T00:15:45;17.22;74.85
68912;SHT31;55953;51.650;-0.522;2023-06-22T00:18:13;17.21;74.80
68912;SHT31;55953;51.650;-0.522;2023-06-22T00:20:41;17.24;74.72
68912;SHT31;55953;51.650;-0.522;2023-06-22T00:23:09;17.26;74.69
68912;SHT31;55953;51.650;-0.522;2023-06-22T00:25:37;17.27;74.69
68912;SHT31;55953;51.650;-0.522;2023-06-22T00:28:09;17.23;74.80
68912;SHT31;55953;51.650;-0.522;2023-06-22T00:30:37;17.21;74.75
68912;SHT31;55953;51.650;-0.522;2023-06-22T00:33:04;17.12;74.98
68912;SHT31;55953;51.650;-0.522;2023-06-22T00:35:35;17.03;75.21
68912;SHT31;55953;51.650;-0.522;2023-06-22T00:38:02;16.94;75.45
68912;SHT31;55953;51.650;-0.522;2023-06-22T00:40:32;16.87;75.63
68912;SHT31;55953;51.650;-0.522;2023-06-22T00:43:02;16.85;75.76
68912;SHT31;55953;51.650;-0.522;2023-06-22T00:45:30;16.77;76.05
68912;SHT31;55953;51.650;-0.522;2023-06-22T00:47:59;16.78;75.84
68912;SHT31;55953;51.650;-0.522;2023-06-22T00:50:29;16.76;75.89
68912;SHT31;55953;51.650;-0.522;2023-06-22T00:53:06;16.61;76.09
68912;SHT31;55953;51.650;-0.522;2023-06-22T00:55:37;16.48;76.30
68912;SHT31;55953;51.650;-0.522;2023-06-22T00:58:14;16.36;76.80
68912;SHT31;55953;51.650;-0.522;2023-06-22T01:00:42;16.31;76.86
68912;SHT31;55953;51.650;-0.522;2023-06-22T01:03:10;16.32;76.93
68912;SHT31;55953;51.650;-0.522;2023-06-22T01:05:39;16.31;76.81
68912;SHT31;55953;51.650;-0.522;2023-06-22T01:08:23;16.30;77.01
68912;SHT31;55953;51.650;-0.522;2023-06-22T01:11:31;16.29;77.08
68912;SHT31;55953;51.650;-0.522;2023-06-22T01:14:11;16.26;77.40
68912;SHT31;55953;51.650;-0.522;2023-06-22T01:16:47;16.23;77.58
68912;SHT31;55953;51.650;-0.522;2023-06-22T01:21:55;16.24;77.53
68912;SHT31;55953;51.650;-0.522;2023-06-22T01:27:27;16.20;77.51
68912;SHT31;55953;51.650;-0.522;2023-06-22T01:30:08;16.19;77.49
68912;SHT31;55953;51.650;-0.522;2023-06-22T01:32:38;16.21;77.63
68912;SHT31;55953;51.650;-0.522;2023-06-22T01:35:08;16.22;77.64
68912;SHT31;55953;51.650;-0.522;2023-06-22T01:37:38;16.18;77.51
68912;SHT31;55953;51.650;-0.522;2023-06-22T01:40:06;16.16;77.50
68912;SHT31;55953;51.650;-0.522;2023-06-22T01:42:36;16.13;77.48
68912;SHT31;55953;51.650;-0.522;2023-06-22T01:45:07;16.06;77.61
68912;SHT31;55953;51.650;-0.522;2023-06-22T01:47:39;16.00;77.73
68912;SHT31;55953;51.650;-0.522;2023-06-22T01:50:09;15.91;77.99
68912;SHT31;55953;51.650;-0.522;2023-06-22T01:52:39;15.87;78.14
68912;SHT31;55953;51.650;-0.522;2023-06-22T01:55:06;15.82;78.07
68912;SHT31;55953;51.650;-0.522;2023-06-22T01:57:35;15.78;78.11
68912;SHT31;55953;51.650;-0.522;2023-06-22T02:00:11;15.75;78.23
68912;SHT31;55953;51.650;-0.522;2023-06-22T02:02:52;15.73;78.30
68912;SHT31;55953;51.650;-0.522;2023-06-22T02:05:28;15.75;78.37
68912;SHT31;55953;51.650;-0.522;2023-06-22T02:08:18;15.74;78.45
68912;SHT31;55953;51.650;-0.522;2023-06-22T02:10:59;15.67;78.80
68912;SHT31;55953;51.650;-0.522;2023-06-22T02:13:30;15.64;78.72
68912;SHT31;55953;51.650;-0.522;2023-06-22T02:15:59;15.62;78.74
68912;SHT31;55953;51.650;-0.522;2023-06-22T02:18:28;15.56;78.84
68912;SHT31;55953;51.650;-0.522;2023-06-22T02:20:56;15.53;78.97
68912;SHT31;55953;51.650;-0.522;2023-06-22T02:23:24;15.48;78.86
68912;SHT31;55953;51.650;-0.522;2023-06-22T02:25:52;15.47;79.01
68912;SHT31;55953;51.650;-0.522;2023-06-22T02:28:20;15.49;79.03
68912;SHT31;55953;51.650;-0.522;2023-06-22T02:30:48;15.49;79.00
68912;SHT31;55953;51.650;-0.522;2023-06-22T02:33:15;15.47;78.93
68912;SHT31;55953;51.650;-0.522;2023-06-22T02:35:46;15.40;78.95
68912;SHT31;55953;51.650;-0.522;2023-06-22T02:38:16;15.35;79.02
68912;SHT31;55953;51.650;-0.522;2023-06-22T02:40:45;15.35;79.14
68912;SHT31;55953;51.650;-0.522;2023-06-22T02:43:14;15.37;79.18
68912;SHT31;55953;51.650;-0.522;2023-06-22T02:45:43;15.35;79.17
68912;SHT31;55953;51.650;-0.522;2023-06-22T02:48:11;15.27;79.06
68912;SHT31;55953;51.650;-0.522;2023-06-22T02:50:39;15.16;79.28
68912;SHT31;55953;51.650;-0.522;2023-06-22T02:53:07;15.16;79.48
68912;SHT31;55953;51.650;-0.522;2023-06-22T02:55:37;15.17;79.45
68912;SHT31;55953;51.650;-0.522;2023-06-22T02:58:07;15.10;79.68
68912;SHT31;55953;51.650;-0.522;2023-06-22T03:00:36;15.10;79.43
68912;SHT31;55953;51.650;-0.522;2023-06-22T03:03:07;15.02;79.47
68912;SHT31;55953;51.650;-0.522;2023-06-22T03:05:35;14.98;79.59
68912;SHT31;55953;51.650;-0.522;2023-06-22T03:08:03;14.91;79.70
68912;SHT31;55953;51.650;-0.522;2023-06-22T03:10:33;14.87;79.95
68912;SHT31;55953;51.650;-0.522;2023-06-22T03:13:01;14.83;80.01
68912;SHT31;55953;51.650;-0.522;2023-06-22T03:15:28;14.82;80.02
68912;SHT31;55953;51.650;-0.522;2023-06-22T03:17:57;14.83;80.04
68912;SHT31;55953;51.650;-0.522;2023-06-22T03:20:25;14.88;80.04
68912;SHT31;55953;51.650;-0.522;2023-06-22T03:22:55;14.90;79.88
68912;SHT31;55953;51.650;-0.522;2023-06-22T03:25:23;14.84;80.03
68912;SHT31;55953;51.650;-0.522;2023-06-22T03:27:51;14.81;80.01
68912;SHT31;55953;51.650;-0.522;2023-06-22T03:30:19;14.77;79.97
68912;SHT31;55953;51.650;-0.522;2023-06-22T03:32:46;14.74;80.10
68912;SHT31;55953;51.650;-0.522;2023-06-22T03:35:15;14.78;80.06
68912;SHT31;55953;51.650;-0.522;2023-06-22T03:37:43;14.81;80.06
68912;SHT31;55953;51.650;-0.522;2023-06-22T03:40:11;14.82;79.69
68912;SHT31;55953;51.650;-0.522;2023-06-22T03:42:39;14.76;79.71
68912;SHT31;55953;51.650;-0.522;2023-06-22T03:45:09;14.65;79.89
68912;SHT31;55953;51.650;-0.522;2023-06-22T03:47:37;14.62;80.09
68912;SHT31;55953;51.650;-0.522;2023-06-22T03:50:05;14.65;80.05
68912;SHT31;55953;51.650;-0.522;2023-06-22T03:52:34;14.63;80.07
68912;SHT31;55953;51.650;-0.522;2023-06-22T03:55:02;14.60;80.21
68912;SHT31;55953;51.650;-0.522;2023-06-22T03:57:30;14.62;80.16
68912;SHT31;55953;51.650;-0.522;2023-06-22T03:59:58;14.65;80.03
68912;SHT31;55953;51.650;-0.522;2023-06-22T04:02:26;14.68;80.02
68912;SHT31;55953;51.650;-0.522;2023-06-22T04:04:54;14.70;79.85
68912;SHT31;55953;51.650;-0.522;2023-06-22T04:07:23;14.73;79.96
68912;SHT31;55953;51.650;-0.522;2023-06-22T04:09:50;14.76;79.85
68912;SHT31;55953;51.650;-0.522;2023-06-22T04:12:18;14.71;80.08
68912;SHT31;55953;51.650;-0.522;2023-06-22T04:14:46;14.74;80.02
68912;SHT31;55953;51.650;-0.522;2023-06-22T04:17:14;14.77;79.96
68912;SHT31;55953;51.650;-0.522;2023-06-22T04:19:42;14.81;79.82
68912;SHT31;55953;51.650;-0.522;2023-06-22T04:22:10;14.80;79.84
68912;SHT31;55953;51.650;-0.522;2023-06-22T04:24:39;14.78;79.89
68912;SHT31;55953;51.650;-0.522;2023-06-22T04:27:06;14.87;80.01
68912;SHT31;55953;51.650;-0.522;2023-06-22T04:29:34;14.99;79.79
68912;SHT31;55953;51.650;-0.522;2023-06-22T04:32:02;15.06;79.72
68912;SHT31;55953;51.650;-0.522;2023-06-22T04:34:33;15.02;79.75
68912;SHT31;55953;51.650;-0.522;2023-06-22T04:37:01;14.98;79.96
68912;SHT31;55953;51.650;-0.522;2023-06-22T04:39:29;15.01;80.00
68912;SHT31;55953;51.650;-0.522;2023-06-22T04:41:56;15.09;79.89
68912;SHT31;55953;51.650;-0.522;2023-06-22T04:44:28;15.18;79.73
68912;SHT31;55953;51.650;-0.522;2023-06-22T04:46:59;15.33;79.43
68912;SHT31;55953;51.650;-0.522;2023-06-22T04:49:30;15.40;79.06
68912;SHT31;55953;51.650;-0.522;2023-06-22T04:52:04;15.41;79.21
68912;SHT31;55953;51.650;-0.522;2023-06-22T04:54:34;15.43;79.25
68912;SHT31;55953;51.650;-0.522;2023-06-22T04:57:05;15.45;79.32
68912;SHT31;55953;51.650;-0.522;2023-06-22T04:59:38;15.57;79.31
68912;SHT31;55953;51.650;-0.522;2023-06-22T05:02:06;15.63;79.12
68912;SHT31;55953;51.650;-0.522;2023-06-22T05:04:35;15.70;79.05
68912;SHT31;55953;51.650;-0.522;2023-06-22T05:07:06;15.76;79.02
68912;SHT31;55953;51.650;-0.522;2023-06-22T05:09:35;15.82;79.09
68912;SHT31;55953;51.650;-0.522;2023-06-22T05:12:02;15.90;78.80
68912;SHT31;55953;51.650;-0.522;2023-06-22T05:14:34;15.84;78.90
68912;SHT31;55953;51.650;-0.522;2023-06-22T05:17:01;15.74;79.17
68912;SHT31;55953;51.650;-0.522;2023-06-22T05:19:31;15.68;79.35
68912;SHT31;55953;51.650;-0.522;2023-06-22T05:22:01;15.63;79.14
68912;SHT31;55953;51.650;-0.522;2023-06-22T05:24:30;15.61;79.17
68912;SHT31;55953;51.650;-0.522;2023-06-22T05:26:57;15.63;79.11
68912;SHT31;55953;51.650;-0.522;2023-06-22T05:29:25;15.80;78.81
68912;SHT31;55953;51.650;-0.522;2023-06-22T05:31:54;16.01;78.29
68912;SHT31;55953;51.650;-0.522;2023-06-22T05:34:22;16.15;78.13
68912;SHT31;55953;51.650;-0.522;2023-06-22T05:36:49;16.40;77.73
68912;SHT31;55953;51.650;-0.522;2023-06-22T05:39:17;16.60;77.59
68912;SHT31;55953;51.650;-0.522;2023-06-22T05:41:45;16.70;77.63
68912;SHT31;55953;51.650;-0.522;2023-06-22T05:44:15;16.70;77.76
68912;SHT31;55953;51.650;-0.522;2023-06-22T05:46:43;16.76;77.96
68912;SHT31;55953;51.650;-0.522;2023-06-22T05:49:13;16.82;78.33
68912;SHT31;55953;51.650;-0.522;2023-06-22T05:51:42;16.94;78.47
68912;SHT31;55953;51.650;-0.522;2023-06-22T05:54:10;17.06;78.27
68912;SHT31;55953;51.650;-0.522;2023-06-22T05:56:40;17.21;77.88
68912;SHT31;55953;51.650;-0.522;2023-06-22T05:59:08;17.31;77.61
68912;SHT31;55953;51.650;-0.522;2023-06-22T06:01:36;17.36;77.18
68912;SHT31;55953;51.650;-0.522;2023-06-22T06:04:04;17.43;76.90
68912;SHT31;55953;51.650;-0.522;2023-06-22T06:06:33;17.53;76.67
68912;SHT31;55953;51.650;-0.522;2023-06-22T06:09:04;17.66;76.46
68912;SHT31;55953;51.650;-0.522;2023-06-22T06:11:32;17.83;76.14
68912;SHT31;55953;51.650;-0.522;2023-06-22T06:14:00;17.99;75.98
68912;SHT31;55953;51.650;-0.522;2023-06-22T06:16:28;18.08;75.84
68912;SHT31;55953;51.650;-0.522;2023-06-22T06:18:56;18.06;75.90
68912;SHT31;55953;51.650;-0.522;2023-06-22T06:21:26;18.04;76.20
68912;SHT31;55953;51.650;-0.522;2023-06-22T06:23:57;18.10;76.23
68912;SHT31;55953;51.650;-0.522;2023-06-22T06:26:26;18.18;76.15
68912;SHT31;55953;51.650;-0.522;2023-06-22T06:28:57;18.24;76.17
68912;SHT31;55953;51.650;-0.522;2023-06-22T06:31:25;18.30;76.12
68912;SHT31;55953;51.650;-0.522;2023-06-22T06:33:56;18.27;76.28
68912;SHT31;55953;51.650;-0.522;2023-06-22T06:36:26;18.34;76.34
68912;SHT31;55953;51.650;-0.522;2023-06-22T06:38:54;18.40;76.31
68912;SHT31;55953;51.650;-0.522;2023-06-22T06:41:22;18.45;76.42
68912;SHT31;55953;51.650;-0.522;2023-06-22T06:43:50;18.50;76.52
68912;SHT31;55953;51.650;-0.522;2023-06-22T06:46:19;18.61;76.47
68912;SHT31;55953;51.650;-0.522;2023-06-22T06:48:47;18.64;76.38
68912;SHT31;55953;51.650;-0.522;2023-06-22T06:51:15;18.68;76.32
68912;SHT31;55953;51.650;-0.522;2023-06-22T06:53:43;18.80;76.18
68912;SHT31;55953;51.650;-0.522;2023-06-22T06:56:11;18.88;76.29
68912;SHT31;55953;51.650;-0.522;2023-06-22T06:58:40;18.95;76.02
68912;SHT31;55953;51.650;-0.522;2023-06-22T07:01:13;19.03;75.97
68912;SHT31;55953;51.650;-0.522;2023-06-22T07:03:41;19.13;75.91
68912;SHT31;55953;51.650;-0.522;2023-06-22T07:06:09;19.23;75.85
68912;SHT31;55953;51.650;-0.522;2023-06-22T07:08:37;19.36;75.70
68912;SHT31;55953;51.650;-0.522;2023-06-22T07:11:07;19.49;75.54
68912;SHT31;55953;51.650;-0.522;2023-06-22T07:13:35;19.55;75.59
68912;SHT31;55953;51.650;-0.522;2023-06-22T07:16:03;19.63;75.44
68912;SHT31;55953;51.650;-0.522;2023-06-22T07:18:31;19.69;75.30
68912;SHT31;55953;51.650;-0.522;2023-06-22T07:20:59;19.78;75.34
68912;SHT31;55953;51.650;-0.522;2023-06-22T07:23:27;20.00;75.01
68912;SHT31;55953;51.650;-0.522;2023-06-22T07:25:55;20.16;74.65
68912;SHT31;55953;51.650;-0.522;2023-06-22T07:28:23;20.30;74.17
68912;SHT31;55953;51.650;-0.522;2023-06-22T07:30:51;20.45;73.82
68912;SHT31;55953;51.650;-0.522;2023-06-22T07:33:19;20.58;73.63
68912;SHT31;55953;51.650;-0.522;2023-06-22T07:35:47;20.63;72.56
68912;SHT31;55953;51.650;-0.522;2023-06-22T07:38:15;20.66;72.32
68912;SHT31;55953;51.650;-0.522;2023-06-22T07:40:44;20.74;72.06
68912;SHT31;55953;51.650;-0.522;2023-06-22T07:43:12;20.85;71.68
68912;SHT31;55953;51.650;-0.522;2023-06-22T07:45:40;20.93;71.30
68912;SHT31;55953;51.650;-0.522;2023-06-22T07:48:20;21.05;70.81
68912;SHT31;55953;51.650;-0.522;2023-06-22T07:50:49;21.18;70.57
68912;SHT31;55953;51.650;-0.522;2023-06-22T07:53:17;21.29;70.17
68912;SHT31;55953;51.650;-0.522;2023-06-22T07:55:45;21.40;69.84
68912;SHT31;55953;51.650;-0.522;2023-06-22T07:58:16;21.54;69.75
68912;SHT31;55953;51.650;-0.522;2023-06-22T08:00:46;21.67;69.71
68912;SHT31;55953;51.650;-0.522;2023-06-22T08:03:15;21.74;69.52
68912;SHT31;55953;51.650;-0.522;2023-06-22T08:05:43;21.81;68.87
68912;SHT31;55953;51.650;-0.522;2023-06-22T08:08:11;21.99;69.04
68912;SHT31;55953;51.650;-0.522;2023-06-22T08:10:39;22.28;68.76
68912;SHT31;55953;51.650;-0.522;2023-06-22T08:13:08;22.61;67.61
68912;SHT31;55953;51.650;-0.522;2023-06-22T08:15:37;22.99;67.43
68912;SHT31;55953;51.650;-0.522;2023-06-22T08:18:05;23.38;66.64
68912;SHT31;55953;51.650;-0.522;2023-06-22T08:20:33;23.71;64.62
68912;SHT31;55953;51.650;-0.522;2023-06-22T08:23:01;23.88;63.85
68912;SHT31;55953;51.650;-0.522;2023-06-22T08:25:33;24.08;64.03
68912;SHT31;55953;51.650;-0.522;2023-06-22T08:28:03;24.24;62.21
68912;SHT31;55953;51.650;-0.522;2023-06-22T08:30:31;24.29;61.74
68912;SHT31;55953;51.650;-0.522;2023-06-22T08:32:59;24.38;61.23
68912;SHT31;55953;51.650;-0.522;2023-06-22T08:35:27;24.44;60.61
68912;SHT31;55953;51.650;-0.522;2023-06-22T08:37:57;24.41;61.27
68912;SHT31;55953;51.650;-0.522;2023-06-22T08:40:25;24.39;61.18
68912;SHT31;55953;51.650;-0.522;2023-06-22T08:42:53;24.42;61.68
68912;SHT31;55953;51.650;-0.522;2023-06-22T08:45:21;24.39;59.86
68912;SHT31;55953;51.650;-0.522;2023-06-22T08:47:49;24.33;60.90
68912;SHT31;55953;51.650;-0.522;2023-06-22T08:50:17;24.38;61.09
68912;SHT31;55953;51.650;-0.522;2023-06-22T08:52:45;24.34;60.81
68912;SHT31;55953;51.650;-0.522;2023-06-22T08:55:14;24.27;60.87
68912;SHT31;55953;51.650;-0.522;2023-06-22T08:57:42;24.25;60.12
68912;SHT31;55953;51.650;-0.522;2023-06-22T09:00:11;24.31;60.04
68912;SHT31;55953;51.650;-0.522;2023-06-22T09:02:45;24.25;59.60
68912;SHT31;55953;51.650;-0.522;2023-06-22T09:05:15;24.16;60.20
68912;SHT31;55953;51.650;-0.522;2023-06-22T09:07:44;24.14;60.66
68912;SHT31;55953;51.650;-0.522;2023-06-22T09:10:11;24.15;60.88
68912;SHT31;55953;51.650;-0.522;2023-06-22T09:12:39;24.15;60.90
68912;SHT31;55953;51.650;-0.522;2023-06-22T09:15:07;24.28;60.90
68912;SHT31;55953;51.650;-0.522;2023-06-22T09:17:43;24.45;60.51
68912;SHT31;55953;51.650;-0.522;2023-06-22T09:20:11;24.55;60.44
68912;SHT31;55953;51.650;-0.522;2023-06-22T09:22:40;24.54;59.92
68912;SHT31;55953;51.650;-0.522;2023-06-22T09:25:09;24.47;59.73
68912;SHT31;55953;51.650;-0.522;2023-06-22T09:27:37;24.54;60.31
68912;SHT31;55953;51.650;-0.522;2023-06-22T09:30:05;24.55;60.19
68912;SHT31;55953;51.650;-0.522;2023-06-22T09:32:34;24.45;60.05
68912;SHT31;55953;51.650;-0.522;2023-06-22T09:35:03;24.31;59.66
68912;SHT31;55953;51.650;-0.522;2023-06-22T09:37:37;24.18;59.65
68912;SHT31;55953;51.650;-0.522;2023-06-22T09:40:06;24.17;60.29
68912;SHT31;55953;51.650;-0.522;2023-06-22T09:42:40;24.19;59.88
68912;SHT31;55953;51.650;-0.522;2023-06-22T09:45:09;24.16;59.32
68912;SHT31;55953;51.650;-0.522;2023-06-22T09:47:37;24.12;59.85
68912;SHT31;55953;51.650;-0.522;2023-06-22T09:50:05;24.16;59.23
68912;SHT31;55953;51.650;-0.522;2023-06-22T09:52:34;24.31;58.40
68912;SHT31;55953;51.650;-0.522;2023-06-22T09:55:15;24.52;58.43
68912;SHT31;55953;51.650;-0.522;2023-06-22T09:57:43;24.81;58.10
68912;SHT31;55953;51.650;-0.522;2023-06-22T10:00:11;25.09;57.45
68912;SHT31;55953;51.650;-0.522;2023-06-22T10:02:41;25.16;54.69
68912;SHT31;55953;51.650;-0.522;2023-06-22T10:05:09;25.00;54.68
68912;SHT31;55953;51.650;-0.522;2023-06-22T10:07:38;24.89;55.57
68912;SHT31;55953;51.650;-0.522;2023-06-22T10:10:10;24.84;55.32
68912;SHT31;55953;51.650;-0.522;2023-06-22T10:12:43;24.83;55.73
68912;SHT31;55953;51.650;-0.522;2023-06-22T10:15:15;24.97;56.11
68912;SHT31;55953;51.650;-0.522;2023-06-22T10:17:43;24.99;54.88
68912;SHT31;55953;51.650;-0.522;2023-06-22T10:20:11;24.95;54.50
68912;SHT31;55953;51.650;-0.522;2023-06-22T10:22:41;24.92;55.45
68912;SHT31;55953;51.650;-0.522;2023-06-22T10:25:11;25.09;55.99
68912;SHT31;55953;51.650;-0.522;2023-06-22T10:27:40;25.43;55.53
68912;SHT31;55953;51.650;-0.522;2023-06-22T10:30:09;25.66;54.33
68912;SHT31;55953;51.650;-0.522;2023-06-22T10:32:42;25.67;53.74
68912;SHT31;55953;51.650;-0.522;2023-06-22T10:35:11;25.66;54.23
68912;SHT31;55953;51.650;-0.522;2023-06-22T10:37:42;25.77;53.36
68912;SHT31;55953;51.650;-0.522;2023-06-22T10:40:15;25.84;53.35
68912;SHT31;55953;51.650;-0.522;2023-06-22T10:42:44;26.07;53.81
68912;SHT31;55953;51.650;-0.522;2023-06-22T10:45:12;26.23;52.57
68912;SHT31;55953;51.650;-0.522;2023-06-22T10:47:41;26.30;51.65
68912;SHT31;55953;51.650;-0.522;2023-06-22T10:50:10;26.31;52.47
68912;SHT31;55953;51.650;-0.522;2023-06-22T10:52:39;26.28;51.30
68912;SHT31;55953;51.650;-0.522;2023-06-22T10:55:10;26.10;51.64
68912;SHT31;55953;51.650;-0.522;2023-06-22T10:57:38;25.95;51.90
68912;SHT31;55953;51.650;-0.522;2023-06-22T11:00:09;25.83;52.34
68912;SHT31;55953;51.650;-0.522;2023-06-22T11:02:39;25.74;52.03
68912;SHT31;55953;51.650;-0.522;2023-06-22T11:05:07;25.66;52.12
68912;SHT31;55953;51.650;-0.522;2023-06-22T11:07:36;25.67;52.67
68912;SHT31;55953;51.650;-0.522;2023-06-22T11:10:13;25.69;52.45
68912;SHT31;55953;51.650;-0.522;2023-06-22T11:12:41;25.65;52.75
68912;SHT31;55953;51.650;-0.522;2023-06-22T11:15:10;25.65;52.02
68912;SHT31;55953;51.650;-0.522;2023-06-22T11:17:38;25.69;50.60
68912;SHT31;55953;51.650;-0.522;2023-06-22T11:20:06;25.67;51.24
68912;SHT31;55953;51.650;-0.522;2023-06-22T11:22:39;25.77;51.49
68912;SHT31;55953;51.650;-0.522;2023-06-22T11:25:08;25.98;51.25
68912;SHT31;55953;51.650;-0.522;2023-06-22T11:27:38;26.22;50.60
68912;SHT31;55953;51.650;-0.522;2023-06-22T11:30:07;26.41;50.24
68912;SHT31;55953;51.650;-0.522;2023-06-22T11:32:35;26.60;48.85
68912;SHT31;55953;51.650;-0.522;2023-06-22T11:35:04;26.74;48.67
68912;SHT31;55953;51.650;-0.522;2023-06-22T11:37:32;26.81;47.32
68912;SHT31;55953;51.650;-0.522;2023-06-22T11:40:00;26.74;48.22
68912;SHT31;55953;51.650;-0.522;2023-06-22T11:42:32;26.72;48.48
68912;SHT31;55953;51.650;-0.522;2023-06-22T11:45:00;26.59;47.49
68912;SHT31;55953;51.650;-0.522;2023-06-22T11:47:28;26.52;48.85
68912;SHT31;55953;51.650;-0.522;2023-06-22T11:49:56;26.53;49.12
68912;SHT31;55953;51.650;-0.522;2023-06-22T11:52:24;26.54;48.95
68912;SHT31;55953;51.650;-0.522;2023-06-22T11:54:55;26.47;49.07
68912;SHT31;55953;51.650;-0.522;2023-06-22T11:57:22;26.40;49.32
68912;SHT31;55953;51.650;-0.522;2023-06-22T11:59:51;26.54;49.57
68912;SHT31;55953;51.650;-0.522;2023-06-22T12:02:18;26.82;48.02
68912;SHT31;55953;51.650;-0.522;2023-06-22T12:04:46;26.97;47.36
68912;SHT31;55953;51.650;-0.522;2023-06-22T12:07:14;26.95;47.02
68912;SHT31;55953;51.650;-0.522;2023-06-22T12:09:42;26.83;46.94
68912;SHT31;55953;51.650;-0.522;2023-06-22T12:12:09;26.94;46.95
68912;SHT31;55953;51.650;-0.522;2023-06-22T12:14:37;27.12;46.39
68912;SHT31;55953;51.650;-0.522;2023-06-22T12:17:05;27.15;45.13
68912;SHT31;55953;51.650;-0.522;2023-06-22T12:19:33;27.20;45.17
68912;SHT31;55953;51.650;-0.522;2023-06-22T12:22:01;27.30;44.99
68912;SHT31;55953;51.650;-0.522;2023-06-22T12:24:28;27.43;45.92
68912;SHT31;55953;51.650;-0.522;2023-06-22T12:26:56;27.56;46.17
68912;SHT31;55953;51.650;-0.522;2023-06-22T12:29:24;27.61;46.04
68912;SHT31;55953;51.650;-0.522;2023-06-22T12:31:52;27.78;45.24
68912;SHT31;55953;51.650;-0.522;2023-06-22T12:34:20;27.99;45.42
68912;SHT31;55953;51.650;-0.522;2023-06-22T12:36:48;28.20;45.39
68912;SHT31;55953;51.650;-0.522;2023-06-22T12:39:16;28.36;44.60
68912;SHT31;55953;51.650;-0.522;2023-06-22T12:41:43;28.51;42.87
68912;SHT31;55953;51.650;-0.522;2023-06-22T12:44:12;28.42;41.48
68912;SHT31;55953;51.650;-0.522;2023-06-22T12:46:39;28.42;42.53
68912;SHT31;55953;51.650;-0.522;2023-06-22T12:49:08;28.49;41.72
68912;SHT31;55953;51.650;-0.522;2023-06-22T12:51:39;28.45;41.47
68912;SHT31;55953;51.650;-0.522;2023-06-22T12:54:09;28.46;42.20
68912;SHT31;55953;51.650;-0.522;2023-06-22T12:56:38;28.55;42.05
68912;SHT31;55953;51.650;-0.522;2023-06-22T12:59:06;28.48;41.40
68912;SHT31;55953;51.650;-0.522;2023-06-22T13:01:34;28.16;41.54
68912;SHT31;55953;51.650;-0.522;2023-06-22T13:04:01;28.10;41.79
68912;SHT31;55953;51.650;-0.522;2023-06-22T13:06:29;28.22;42.69
68912;SHT31;55953;51.650;-0.522;2023-06-22T13:08:57;28.40;42.22
68912;SHT31;55953;51.650;-0.522;2023-06-22T13:11:45;28.62;42.63
68912;SHT31;55953;51.650;-0.522;2023-06-22T13:14:13;28.70;40.47
68912;SHT31;55953;51.650;-0.522;2023-06-22T13:16:43;28.44;39.32
68912;SHT31;55953;51.650;-0.522;2023-06-22T13:19:11;28.17;40.30
68912;SHT31;55953;51.650;-0.522;2023-06-22T13:21:39;28.00;40.73
68912;SHT31;55953;51.650;-0.522;2023-06-22T13:24:07;27.75;41.30
68912;SHT31;55953;51.650;-0.522;2023-06-22T13:26:35;27.47;41.74
68912;SHT31;55953;51.650;-0.522;2023-06-22T13:29:04;27.41;42.07
68912;SHT31;55953;51.650;-0.522;2023-06-22T13:31:32;27.53;41.17
68912;SHT31;55953;51.650;-0.522;2023-06-22T13:33:59;27.76;41.99
68912;SHT31;55953;51.650;-0.522;2023-06-22T13:36:27;28.05;41.35
68912;SHT31;55953;51.650;-0.522;2023-06-22T13:38:58;28.23;40.61
68912;SHT31;55953;51.650;-0.522;2023-06-22T13:41:26;28.42;41.20
68912;SHT31;55953;51.650;-0.522;2023-06-22T13:43:54;28.63;40.51
68912;SHT31;55953;51.650;-0.522;2023-06-22T13:46:22;28.77;39.99
68912;SHT31;55953;51.650;-0.522;2023-06-22T13:48:50;28.71;38.79
68912;SHT31;55953;51.650;-0.522;2023-06-22T13:51:20;28.44;39.53
68912;SHT31;55953;51.650;-0.522;2023-06-22T13:53:48;28.38;39.98
68912;SHT31;55953;51.650;-0.522;2023-06-22T13:56:15;28.67;40.22
68912;SHT31;55953;51.650;-0.522;2023-06-22T13:58:43;28.99;39.09
68912;SHT31;55953;51.650;-0.522;2023-06-22T14:01:11;29.17;37.92
68912;SHT31;55953;51.650;-0.522;2023-06-22T14:03:44;29.20;37.69
68912;SHT31;55953;51.650;-0.522;2023-06-22T14:06:15;29.21;38.07
68912;SHT31;55953;51.650;-0.522;2023-06-22T14:08:43;29.22;38.62
68912;SHT31;55953;51.650;-0.522;2023-06-22T14:11:11;29.19;38.02
68912;SHT31;55953;51.650;-0.522;2023-06-22T14:13:39;29.20;37.92
68912;SHT31;55953;51.650;-0.522;2023-06-22T14:16:10;29.19;37.83
68912;SHT31;55953;51.650;-0.522;2023-06-22T14:18:38;29.22;38.33
68912;SHT31;55953;51.650;-0.522;2023-06-22T14:21:06;29.38;38.70
68912;SHT31;55953;51.650;-0.522;2023-06-22T14:23:35;29.40;37.89
68912;SHT31;55953;51.650;-0.522;2023-06-22T14:26:02;29.31;38.44
68912;SHT31;55953;51.650;-0.522;2023-06-22T14:28:30;29.51;39.58
68912;SHT31;55953;51.650;-0.522;2023-06-22T14:30:58;29.62;38.36
68912;SHT31;55953;51.650;-0.522;2023-06-22T14:33:26;29.62;38.77
68912;SHT31;55953;51.650;-0.522;2023-06-22T14:35:55;29.73;39.23
68912;SHT31;55953;51.650;-0.522;2023-06-22T14:38:22;29.72;38.60
68912;SHT31;55953;51.650;-0.522;2023-06-22T14:40:50;29.58;38.85
68912;SHT31;55953;51.650;-0.522;2023-06-22T14:43:42;29.52;39.36
68912;SHT31;55953;51.650;-0.522;2023-06-22T14:46:17;29.66;39.73
68912;SHT31;55953;51.650;-0.522;2023-06-22T14:48:46;29.82;38.81
68912;SHT31;55953;51.650;-0.522;2023-06-22T14:51:15;29.87;38.56
68912;SHT31;55953;51.650;-0.522;2023-06-22T14:53:44;29.90;38.92
68912;SHT31;55953;51.650;-0.522;2023-06-22T14:56:13;29.82;39.24
68912;SHT31;55953;51.650;-0.522;2023-06-22T14:58:43;29.55;39.20
68912;SHT31;55953;51.650;-0.522;2023-06-22T15:01:16;29.26;40.23
68912;SHT31;55953;51.650;-0.522;2023-06-22T15:03:45;29.22;40.56
68912;SHT31;55953;51.650;-0.522;2023-06-22T15:06:13;28.94;40.67
68912;SHT31;55953;51.650;-0.522;2023-06-22T15:08:42;28.52;40.83
68912;SHT31;55953;51.650;-0.522;2023-06-22T15:11:11;28.33;41.77
68912;SHT31;55953;51.650;-0.522;2023-06-22T15:13:40;28.28;40.67
68912;SHT31;55953;51.650;-0.522;2023-06-22T15:16:08;28.45;41.72
68912;SHT31;55953;51.650;-0.522;2023-06-22T15:18:37;28.70;40.40
68912;SHT31;55953;51.650;-0.522;2023-06-22T15:21:05;28.77;39.57
68912;SHT31;55953;51.650;-0.522;2023-06-22T15:23:33;28.87;39.24
68912;SHT31;55953;51.650;-0.522;2023-06-22T15:26:02;28.96;39.82
68912;SHT31;55953;51.650;-0.522;2023-06-22T15:28:34;29.00;39.68
68912;SHT31;55953;51.650;-0.522;2023-06-22T15:31:05;29.01;39.52
68912;SHT31;55953;51.650;-0.522;2023-06-22T15:33:33;29.07;39.96